sensor_id;sensor_type;location;lat;lon;timestamp;P1;durP1;ratioP1;P2;durP2;ratioP2
12846;SDS011;6492;48.128;8.320;2023-03-19T00:02:17;4.27;;;2.43;;
12846;SDS011;6492;48.128;8.320;2023-03-19T00:06:20;4.20;;;2.30;;
12846;SDS011;6492;48.128;8.320;2023-03-19T00:10:22;4.07;;;2.40;;
12846;SDS011;6492;48.128;8.320;2023-03-19T00:14:25;3.50;;;2.30;;
12846;SDS011;6492;48.128;8.320;2023-03-19T00:18:28;4.80;;;2.53;;
12846;SDS011;6492;48.128;8.320;2023-03-19T00:22:29;3.70;;;2.40;;
12846;SDS011;6492;48.128;8.320;2023-03-19T00:26:32;5.57;;;2.63;;
12846;SDS011;6492;48.128;8.320;2023-03-19T00:30:35;3.90;;;2.47;;
12846;SDS011;6492;48.128;8.320;2023-03-19T00:34:38;3.40;;;2.63;;
12846;SDS011;6492;48.128;8.320;2023-03-19T00:38:41;4.10;;;2.43;;
12846;SDS011;6492;48.128;8.320;2023-03-19T00:42:43;3.10;;;2.20;;
12846;SDS011;6492;48.128;8.320;2023-03-19T00:46:45;5.23;;;2.57;;
12846;SDS011;6492;48.128;8.320;2023-03-19T00:50:48;6.73;;;2.70;;
12846;SDS011;6492;48.128;8.320;2023-03-19T00:54:51;3.83;;;2.40;;
12846;SDS011;6492;48.128;8.320;2023-03-19T00:58:52;4.93;;;3.07;;
12846;SDS011;6492;48.128;8.320;2023-03-19T01:02:56;4.50;;;2.70;;
12846;SDS011;6492;48.128;8.320;2023-03-19T01:06:59;5.17;;;3.03;;
12846;SDS011;6492;48.128;8.320;2023-03-19T01:11:05;3.67;;;2.50;;
12846;SDS011;6492;48.128;8.320;2023-03-19T01:15:08;4.27;;;2.70;;
12846;SDS011;6492;48.128;8.320;2023-03-19T01:19:10;4.03;;;2.40;;
12846;SDS011;6492;48.128;8.320;2023-03-19T01:23:14;4.37;;;2.70;;
12846;SDS011;6492;48.128;8.320;2023-03-19T01:27:16;4.80;;;2.70;;
12846;SDS011;6492;48.128;8.320;2023-03-19T01:31:18;4.27;;;2.80;;
12846;SDS011;6492;48.128;8.320;2023-03-19T01:35:20;3.13;;;2.67;;
12846;SDS011;6492;48.128;8.320;2023-03-19T01:39:23;5.60;;;2.63;;
12846;SDS011;6492;48.128;8.320;2023-03-19T01:43:26;5.47;;;2.60;;
12846;SDS011;6492;48.128;8.320;2023-03-19T01:47:30;4.67;;;2.53;;
12846;SDS011;6492;48.128;8.320;2023-03-19T01:51:34;5.20;;;2.40;;
12846;SDS011;6492;48.128;8.320;2023-03-19T01:55:43;3.47;;;2.70;;
12846;SDS011;6492;48.128;8.320;2023-03-19T01:59:47;4.20;;;2.50;;
12846;SDS011;6492;48.128;8.320;2023-03-19T02:03:51;4.23;;;2.50;;
12846;SDS011;6492;48.128;8.320;2023-03-19T02:07:55;5.10;;;2.40;;
12846;SDS011;6492;48.128;8.320;2023-03-19T02:12:01;2.97;;;2.37;;
12846;SDS011;6492;48.128;8.320;2023-03-19T02:16:04;3.57;;;2.03;;
12846;SDS011;6492;48.128;8.320;2023-03-19T02:20:09;3.57;;;2.10;;
12846;SDS011;6492;48.128;8.320;2023-03-19T02:24:18;3.93;;;2.00;;
12846;SDS011;6492;48.128;8.320;2023-03-19T02:28:25;4.23;;;2.40;;
12846;SDS011;6492;48.128;8.320;2023-03-19T02:32:28;2.17;;;1.90;;
12846;SDS011;6492;48.128;8.320;2023-03-19T02:36:31;3.10;;;1.80;;
12846;SDS011;6492;48.128;8.320;2023-03-19T02:40:37;2.67;;;1.83;;
12846;SDS011;6492;48.128;8.320;2023-03-19T02:44:45;2.43;;;1.80;;
12846;SDS011;6492;48.128;8.320;2023-03-19T02:48:47;2.10;;;1.80;;
12846;SDS011;6492;48.128;8.320;2023-03-19T02:52:49;3.70;;;1.70;;
12846;SDS011;6492;48.128;8.320;2023-03-19T02:56:51;5.13;;;1.67;;
12846;SDS011;6492;48.128;8.320;2023-03-19T03:00:54;1.80;;;1.70;;
12846;SDS011;6492;48.128;8.320;2023-03-19T03:04:56;3.27;;;1.77;;
12846;SDS011;6492;48.128;8.320;2023-03-19T03:08:57;2.30;;;1.50;;
12846;SDS011;6492;48.128;8.320;2023-03-19T03:13:00;3.37;;;2.20;;
12846;SDS011;6492;48.128;8.320;2023-03-19T03:17:06;3.30;;;1.90;;
12846;SDS011;6492;48.128;8.320;2023-03-19T03:21:08;4.37;;;1.97;;
12846;SDS011;6492;48.128;8.320;2023-03-19T03:25:10;2.73;;;1.93;;
12846;SDS011;6492;48.128;8.320;2023-03-19T03:29:12;2.37;;;1.90;;
12846;SDS011;6492;48.128;8.320;2023-03-19T03:33:15;2.30;;;1.90;;
12846;SDS011;6492;48.128;8.320;2023-03-19T03:37:17;3.53;;;1.80;;
12846;SDS011;6492;48.128;8.320;2023-03-19T03:41:19;2.40;;;1.60;;
12846;SDS011;6492;48.128;8.320;2023-03-19T03:45:21;2.00;;;1.70;;
12846;SDS011;6492;48.128;8.320;2023-03-19T03:49:24;2.47;;;1.70;;
12846;SDS011;6492;48.128;8.320;2023-03-19T03:53:26;2.00;;;1.50;;
12846;SDS011;6492;48.128;8.320;2023-03-19T03:57:28;1.67;;;1.57;;
12846;SDS011;6492;48.128;8.320;2023-03-19T04:01:30;2.13;;;1.67;;
12846;SDS011;6492;48.128;8.320;2023-03-19T04:05:34;2.80;;;1.83;;
12846;SDS011;6492;48.128;8.320;2023-03-19T04:09:36;3.63;;;1.90;;
12846;SDS011;6492;48.128;8.320;2023-03-19T04:13:38;3.30;;;2.00;;
12846;SDS011;6492;48.128;8.320;2023-03-19T04:17:40;3.37;;;2.03;;
12846;SDS011;6492;48.128;8.320;2023-03-19T04:21:43;3.43;;;1.97;;
12846;SDS011;6492;48.128;8.320;2023-03-19T04:25:45;5.20;;;2.83;;
12846;SDS011;6492;48.128;8.320;2023-03-19T04:29:47;3.67;;;1.93;;
12846;SDS011;6492;48.128;8.320;2023-03-19T04:33:50;4.73;;;2.47;;
12846;SDS011;6492;48.128;8.320;2023-03-19T04:37:53;3.00;;;2.00;;
12846;SDS011;6492;48.128;8.320;2023-03-19T04:41:56;3.57;;;2.23;;
12846;SDS011;6492;48.128;8.320;2023-03-19T04:45:57;1.83;;;1.60;;
12846;SDS011;6492;48.128;8.320;2023-03-19T04:49:59;3.43;;;2.80;;
12846;SDS011;6492;48.128;8.320;2023-03-19T04:54:03;3.83;;;2.13;;
12846;SDS011;6492;48.128;8.320;2023-03-19T04:58:05;3.50;;;2.20;;
12846;SDS011;6492;48.128;8.320;2023-03-19T05:02:08;3.07;;;2.10;;
12846;SDS011;6492;48.128;8.320;2023-03-19T05:06:10;3.40;;;2.13;;
12846;SDS011;6492;48.128;8.320;2023-03-19T05:10:13;2.00;;;1.80;;
12846;SDS011;6492;48.128;8.320;2023-03-19T05:14:15;3.40;;;1.90;;
12846;SDS011;6492;48.128;8.320;2023-03-19T05:18:17;3.70;;;2.30;;
12846;SDS011;6492;48.128;8.320;2023-03-19T05:22:19;2.47;;;2.00;;
12846;SDS011;6492;48.128;8.320;2023-03-19T05:26:22;2.30;;;2.10;;
12846;SDS011;6492;48.128;8.320;2023-03-19T05:30:24;3.30;;;1.87;;
12846;SDS011;6492;48.128;8.320;2023-03-19T05:34:26;3.97;;;2.00;;
12846;SDS011;6492;48.128;8.320;2023-03-19T05:38:28;4.57;;;2.63;;
12846;SDS011;6492;48.128;8.320;2023-03-19T05:42:31;2.43;;;2.23;;
12846;SDS011;6492;48.128;8.320;2023-03-19T05:46:33;2.73;;;2.20;;
12846;SDS011;6492;48.128;8.320;2023-03-19T05:50:35;3.83;;;2.87;;
12846;SDS011;6492;48.128;8.320;2023-03-19T05:54:37;3.20;;;2.70;;
12846;SDS011;6492;48.128;8.320;2023-03-19T05:58:40;3.53;;;2.33;;
12846;SDS011;6492;48.128;8.320;2023-03-19T06:02:42;3.03;;;2.20;;
12846;SDS011;6492;48.128;8.320;2023-03-19T06:06:44;2.53;;;2.13;;
12846;SDS011;6492;48.128;8.320;2023-03-19T06:10:46;3.70;;;2.30;;
12846;SDS011;6492;48.128;8.320;2023-03-19T06:14:49;2.60;;;1.80;;
12846;SDS011;6492;48.128;8.320;2023-03-19T06:18:51;3.27;;;1.97;;
12846;SDS011;6492;48.128;8.320;2023-03-19T06:22:53;3.20;;;2.10;;
12846;SDS011;6492;48.128;8.320;2023-03-19T06:26:54;3.00;;;1.87;;
12846;SDS011;6492;48.128;8.320;2023-03-19T06:30:58;2.80;;;1.93;;
12846;SDS011;6492;48.128;8.320;2023-03-19T06:35:00;2.93;;;2.00;;
12846;SDS011;6492;48.128;8.320;2023-03-19T06:39:01;4.37;;;2.60;;
12846;SDS011;6492;48.128;8.320;2023-03-19T06:43:03;3.00;;;2.30;;
12846;SDS011;6492;48.128;8.320;2023-03-19T06:47:08;3.27;;;2.50;;
12846;SDS011;6492;48.128;8.320;2023-03-19T06:51:10;2.90;;;2.13;;
12846;SDS011;6492;48.128;8.320;2023-03-19T06:55:12;3.50;;;2.30;;
12846;SDS011;6492;48.128;8.320;2023-03-19T06:59:14;3.30;;;2.90;;
12846;SDS011;6492;48.128;8.320;2023-03-19T07:03:18;17.77;;;10.80;;
12846;SDS011;6492;48.128;8.320;2023-03-19T07:07:20;4.30;;;2.83;;
12846;SDS011;6492;48.128;8.320;2023-03-19T07:11:25;2.37;;;2.10;;
12846;SDS011;6492;48.128;8.320;2023-03-19T07:15:27;2.10;;;1.90;;
12846;SDS011;6492;48.128;8.320;2023-03-19T07:19:30;2.47;;;2.10;;
12846;SDS011;6492;48.128;8.320;2023-03-19T07:23:32;3.87;;;2.37;;
12846;SDS011;6492;48.128;8.320;2023-03-19T07:27:34;2.90;;;2.30;;
12846;SDS011;6492;48.128;8.320;2023-03-19T07:31:44;3.13;;;2.07;;
12846;SDS011;6492;48.128;8.320;2023-03-19T07:35:48;3.83;;;1.90;;
12846;SDS011;6492;48.128;8.320;2023-03-19T07:44:02;3.67;;;2.20;;
12846;SDS011;6492;48.128;8.320;2023-03-19T07:48:04;3.87;;;2.33;;
12846;SDS011;6492;48.128;8.320;2023-03-19T07:52:08;2.30;;;1.93;;
12846;SDS011;6492;48.128;8.320;2023-03-19T07:56:10;2.47;;;2.23;;
12846;SDS011;6492;48.128;8.320;2023-03-19T08:00:12;2.53;;;2.33;;
12846;SDS011;6492;48.128;8.320;2023-03-19T08:04:26;4.13;;;2.33;;
12846;SDS011;6492;48.128;8.320;2023-03-19T08:08:35;4.20;;;2.80;;
12846;SDS011;6492;48.128;8.320;2023-03-19T08:12:37;3.13;;;2.30;;
12846;SDS011;6492;48.128;8.320;2023-03-19T08:16:46;3.80;;;2.90;;
12846;SDS011;6492;48.128;8.320;2023-03-19T08:20:59;5.20;;;3.20;;
12846;SDS011;6492;48.128;8.320;2023-03-19T08:25:03;2.30;;;2.10;;
12846;SDS011;6492;48.128;8.320;2023-03-19T08:29:06;4.43;;;2.53;;
12846;SDS011;6492;48.128;8.320;2023-03-19T08:33:07;4.70;;;2.70;;
12846;SDS011;6492;48.128;8.320;2023-03-19T08:37:10;4.47;;;2.27;;
12846;SDS011;6492;48.128;8.320;2023-03-19T08:41:19;3.27;;;2.50;;
12846;SDS011;6492;48.128;8.320;2023-03-19T08:45:28;3.07;;;2.30;;
12846;SDS011;6492;48.128;8.320;2023-03-19T08:49:31;5.90;;;2.40;;
12846;SDS011;6492;48.128;8.320;2023-03-19T08:53:40;3.10;;;2.80;;
12846;SDS011;6492;48.128;8.320;2023-03-19T08:57:45;4.53;;;2.40;;
12846;SDS011;6492;48.128;8.320;2023-03-19T09:01:49;5.13;;;2.60;;
12846;SDS011;6492;48.128;8.320;2023-03-19T09:05:51;4.70;;;2.50;;
12846;SDS011;6492;48.128;8.320;2023-03-19T09:09:56;2.90;;;2.30;;
12846;SDS011;6492;48.128;8.320;2023-03-19T09:13:59;3.00;;;2.60;;
12846;SDS011;6492;48.128;8.320;2023-03-19T09:18:01;4.17;;;2.50;;
12846;SDS011;6492;48.128;8.320;2023-03-19T09:22:12;6.10;;;3.30;;
12846;SDS011;6492;48.128;8.320;2023-03-19T09:26:14;4.33;;;2.40;;
12846;SDS011;6492;48.128;8.320;2023-03-19T09:30:17;3.93;;;2.57;;
12846;SDS011;6492;48.128;8.320;2023-03-19T09:34:19;4.67;;;1.93;;
12846;SDS011;6492;48.128;8.320;2023-03-19T09:38:21;3.33;;;2.20;;
12846;SDS011;6492;48.128;8.320;2023-03-19T09:42:26;3.30;;;2.70;;
12846;SDS011;6492;48.128;8.320;2023-03-19T09:46:45;3.33;;;2.23;;
12846;SDS011;6492;48.128;8.320;2023-03-19T09:50:52;4.70;;;2.33;;
12846;SDS011;6492;48.128;8.320;2023-03-19T09:54:55;3.37;;;2.20;;
12846;SDS011;6492;48.128;8.320;2023-03-19T09:59:01;2.50;;;2.20;;
12846;SDS011;6492;48.128;8.320;2023-03-19T10:03:05;2.97;;;1.90;;
12846;SDS011;6492;48.128;8.320;2023-03-19T10:07:28;3.27;;;2.20;;
12846;SDS011;6492;48.128;8.320;2023-03-19T10:11:53;3.47;;;2.13;;
12846;SDS011;6492;48.128;8.320;2023-03-19T10:16:09;4.50;;;2.40;;
12846;SDS011;6492;48.128;8.320;2023-03-19T10:20:18;3.43;;;2.00;;
12846;SDS011;6492;48.128;8.320;2023-03-19T10:24:30;3.23;;;2.30;;
12846;SDS011;6492;48.128;8.320;2023-03-19T10:28:36;4.33;;;2.23;;
12846;SDS011;6492;48.128;8.320;2023-03-19T10:32:40;4.57;;;3.40;;
12846;SDS011;6492;48.128;8.320;2023-03-19T10:36:44;3.70;;;2.00;;
12846;SDS011;6492;48.128;8.320;2023-03-19T10:40:48;2.47;;;2.27;;
12846;SDS011;6492;48.128;8.320;2023-03-19T10:45:00;4.53;;;2.57;;
12846;SDS011;6492;48.128;8.320;2023-03-19T10:49:10;3.57;;;2.13;;
12846;SDS011;6492;48.128;8.320;2023-03-19T10:57:40;6.97;;;2.40;;
12846;SDS011;6492;48.128;8.320;2023-03-19T11:01:45;3.03;;;1.87;;
12846;SDS011;6492;48.128;8.320;2023-03-19T11:05:47;3.50;;;2.50;;
12846;SDS011;6492;48.128;8.320;2023-03-19T11:09:50;3.83;;;2.30;;
12846;SDS011;6492;48.128;8.320;2023-03-19T11:13:52;4.17;;;2.20;;
12846;SDS011;6492;48.128;8.320;2023-03-19T11:18:07;6.53;;;2.97;;
12846;SDS011;6492;48.128;8.320;2023-03-19T11:22:20;2.93;;;2.30;;
12846;SDS011;6492;48.128;8.320;2023-03-19T11:26:28;2.77;;;2.27;;
12846;SDS011;6492;48.128;8.320;2023-03-19T11:30:32;6.43;;;2.50;;
12846;SDS011;6492;48.128;8.320;2023-03-19T11:34:41;3.20;;;2.00;;
12846;SDS011;6492;48.128;8.320;2023-03-19T11:38:56;3.03;;;2.20;;
12846;SDS011;6492;48.128;8.320;2023-03-19T11:43:26;4.73;;;2.40;;
12846;SDS011;6492;48.128;8.320;2023-03-19T11:47:39;2.40;;;2.20;;
12846;SDS011;6492;48.128;8.320;2023-03-19T11:51:50;2.90;;;2.00;;
12846;SDS011;6492;48.128;8.320;2023-03-19T11:56:01;3.20;;;2.43;;
12846;SDS011;6492;48.128;8.320;2023-03-19T12:00:19;4.33;;;2.63;;
12846;SDS011;6492;48.128;8.320;2023-03-19T12:04:33;2.73;;;2.30;;
12846;SDS011;6492;48.128;8.320;2023-03-19T12:08:48;3.57;;;2.10;;
12846;SDS011;6492;48.128;8.320;2023-03-19T12:12:54;2.17;;;1.97;;
12846;SDS011;6492;48.128;8.320;2023-03-19T12:17:12;2.97;;;1.80;;
12846;SDS011;6492;48.128;8.320;2023-03-19T12:21:25;3.47;;;1.97;;
12846;SDS011;6492;48.128;8.320;2023-03-19T12:25:55;2.43;;;1.90;;
12846;SDS011;6492;48.128;8.320;2023-03-19T12:30:11;4.07;;;1.67;;
12846;SDS011;6492;48.128;8.320;2023-03-19T12:34:22;2.47;;;1.70;;
12846;SDS011;6492;48.128;8.320;2023-03-19T12:38:30;2.43;;;1.43;;
12846;SDS011;6492;48.128;8.320;2023-03-19T12:42:38;1.90;;;1.70;;
12846;SDS011;6492;48.128;8.320;2023-03-19T12:46:41;2.37;;;1.73;;
12846;SDS011;6492;48.128;8.320;2023-03-19T12:51:00;4.03;;;1.73;;
12846;SDS011;6492;48.128;8.320;2023-03-19T12:55:12;2.40;;;1.50;;
12846;SDS011;6492;48.128;8.320;2023-03-19T12:59:22;1.60;;;1.50;;
12846;SDS011;6492;48.128;8.320;2023-03-19T13:03:32;3.00;;;1.70;;
12846;SDS011;6492;48.128;8.320;2023-03-19T13:07:42;2.37;;;1.60;;
12846;SDS011;6492;48.128;8.320;2023-03-19T13:11:51;1.70;;;1.50;;
12846;SDS011;6492;48.128;8.320;2023-03-19T13:15:59;1.60;;;1.50;;
12846;SDS011;6492;48.128;8.320;2023-03-19T13:20:13;4.33;;;1.70;;
12846;SDS011;6492;48.128;8.320;2023-03-19T13:24:22;2.77;;;1.50;;
12846;SDS011;6492;48.128;8.320;2023-03-19T13:28:28;2.73;;;1.67;;
12846;SDS011;6492;48.128;8.320;2023-03-19T13:32:36;3.53;;;1.77;;
12846;SDS011;6492;48.128;8.320;2023-03-19T13:36:46;2.17;;;1.60;;
12846;SDS011;6492;48.128;8.320;2023-03-19T13:40:55;2.67;;;1.70;;
12846;SDS011;6492;48.128;8.320;2023-03-19T13:44:59;2.03;;;1.80;;
12846;SDS011;6492;48.128;8.320;2023-03-19T13:53:32;2.77;;;1.90;;
12846;SDS011;6492;48.128;8.320;2023-03-19T13:57:39;3.33;;;1.97;;
12846;SDS011;6492;48.128;8.320;2023-03-19T14:01:42;1.87;;;1.70;;
12846;SDS011;6492;48.128;8.320;2023-03-19T14:05:47;3.17;;;1.67;;
12846;SDS011;6492;48.128;8.320;2023-03-19T14:10:01;1.63;;;1.50;;
12846;SDS011;6492;48.128;8.320;2023-03-19T14:14:07;1.73;;;1.63;;
12846;SDS011;6492;48.128;8.320;2023-03-19T14:18:16;2.10;;;1.90;;
12846;SDS011;6492;48.128;8.320;2023-03-19T14:22:30;1.37;;;1.27;;
12846;SDS011;6492;48.128;8.320;2023-03-19T14:26:35;3.03;;;1.90;;
12846;SDS011;6492;48.128;8.320;2023-03-19T14:30:45;4.07;;;2.50;;
12846;SDS011;6492;48.128;8.320;2023-03-19T14:34:49;4.23;;;2.17;;
12846;SDS011;6492;48.128;8.320;2023-03-19T14:38:51;3.07;;;1.80;;
12846;SDS011;6492;48.128;8.320;2023-03-19T14:42:58;2.33;;;2.00;;
12846;SDS011;6492;48.128;8.320;2023-03-19T14:47:20;2.37;;;2.17;;
12846;SDS011;6492;48.128;8.320;2023-03-19T14:51:43;2.03;;;1.83;;
12846;SDS011;6492;48.128;8.320;2023-03-19T14:56:09;2.67;;;1.80;;
12846;SDS011;6492;48.128;8.320;2023-03-19T15:00:15;5.13;;;2.20;;
12846;SDS011;6492;48.128;8.320;2023-03-19T15:04:20;4.37;;;1.90;;
12846;SDS011;6492;48.128;8.320;2023-03-19T15:08:36;3.07;;;2.40;;
12846;SDS011;6492;48.128;8.320;2023-03-19T15:12:57;3.20;;;2.07;;
12846;SDS011;6492;48.128;8.320;2023-03-19T15:17:23;2.63;;;2.13;;
12846;SDS011;6492;48.128;8.320;2023-03-19T15:21:29;2.10;;;1.87;;
12846;SDS011;6492;48.128;8.320;2023-03-19T15:25:34;2.47;;;1.80;;
12846;SDS011;6492;48.128;8.320;2023-03-19T15:29:45;4.10;;;2.40;;
12846;SDS011;6492;48.128;8.320;2023-03-19T15:33:47;3.37;;;2.30;;
12846;SDS011;6492;48.128;8.320;2023-03-19T15:37:52;3.53;;;2.50;;
12846;SDS011;6492;48.128;8.320;2023-03-19T15:41:59;2.13;;;1.90;;
12846;SDS011;6492;48.128;8.320;2023-03-19T15:46:03;3.50;;;2.20;;
12846;SDS011;6492;48.128;8.320;2023-03-19T15:50:07;2.97;;;2.40;;
12846;SDS011;6492;48.128;8.320;2023-03-19T15:54:15;7.57;;;3.27;;
12846;SDS011;6492;48.128;8.320;2023-03-19T15:58:19;5.63;;;3.33;;
12846;SDS011;6492;48.128;8.320;2023-03-19T16:02:23;3.47;;;2.20;;
12846;SDS011;6492;48.128;8.320;2023-03-19T16:06:28;3.07;;;2.50;;
12846;SDS011;6492;48.128;8.320;2023-03-19T16:10:35;3.57;;;1.50;;
12846;SDS011;6492;48.128;8.320;2023-03-19T16:14:46;3.10;;;1.50;;
12846;SDS011;6492;48.128;8.320;2023-03-19T16:18:55;1.60;;;1.00;;
12846;SDS011;6492;48.128;8.320;2023-03-19T16:23:01;1.50;;;1.40;;
12846;SDS011;6492;48.128;8.320;2023-03-19T16:27:05;1.40;;;1.27;;
12846;SDS011;6492;48.128;8.320;2023-03-19T16:31:20;1.53;;;1.43;;
12846;SDS011;6492;48.128;8.320;2023-03-19T16:35:23;1.60;;;1.40;;
12846;SDS011;6492;48.128;8.320;2023-03-19T16:43:37;1.53;;;1.40;;
12846;SDS011;6492;48.128;8.320;2023-03-19T16:47:45;4.33;;;3.53;;
12846;SDS011;6492;48.128;8.320;2023-03-19T16:51:48;2.13;;;1.70;;
12846;SDS011;6492;48.128;8.320;2023-03-19T16:55:54;2.77;;;2.43;;
12846;SDS011;6492;48.128;8.320;2023-03-19T16:59:58;2.10;;;1.90;;
12846;SDS011;6492;48.128;8.320;2023-03-19T17:04:04;1.50;;;1.40;;
12846;SDS011;6492;48.128;8.320;2023-03-19T17:08:10;1.20;;;1.10;;
12846;SDS011;6492;48.128;8.320;2023-03-19T17:12:13;2.60;;;2.17;;
12846;SDS011;6492;48.128;8.320;2023-03-19T17:16:18;1.37;;;1.27;;
12846;SDS011;6492;48.128;8.320;2023-03-19T17:20:23;1.50;;;1.40;;
12846;SDS011;6492;48.128;8.320;2023-03-19T17:24:32;1.27;;;1.17;;
12846;SDS011;6492;48.128;8.320;2023-03-19T17:28:35;1.50;;;1.40;;
12846;SDS011;6492;48.128;8.320;2023-03-19T17:32:42;2.33;;;2.13;;
12846;SDS011;6492;48.128;8.320;2023-03-19T17:36:48;1.33;;;1.23;;
12846;SDS011;6492;48.128;8.320;2023-03-19T17:40:52;1.33;;;1.10;;
12846;SDS011;6492;48.128;8.320;2023-03-19T17:44:54;2.30;;;1.37;;
12846;SDS011;6492;48.128;8.320;2023-03-19T17:48:59;1.90;;;1.60;;
12846;SDS011;6492;48.128;8.320;2023-03-19T17:53:01;1.53;;;1.43;;
12846;SDS011;6492;48.128;8.320;2023-03-19T17:57:02;3.03;;;1.67;;
12846;SDS011;6492;48.128;8.320;2023-03-19T18:01:05;2.00;;;1.80;;
12846;SDS011;6492;48.128;8.320;2023-03-19T18:05:15;2.67;;;1.83;;
12846;SDS011;6492;48.128;8.320;2023-03-19T18:13:27;2.60;;;2.37;;
12846;SDS011;6492;48.128;8.320;2023-03-19T18:17:29;2.20;;;2.00;;
12846;SDS011;6492;48.128;8.320;2023-03-19T18:21:32;4.50;;;3.40;;
12846;SDS011;6492;48.128;8.320;2023-03-19T18:25:34;6.33;;;3.53;;
12846;SDS011;6492;48.128;8.320;2023-03-19T18:29:36;5.00;;;4.23;;
12846;SDS011;6492;48.128;8.320;2023-03-19T18:33:38;11.10;;;7.17;;
12846;SDS011;6492;48.128;8.320;2023-03-19T18:37:41;14.23;;;8.93;;
12846;SDS011;6492;48.128;8.320;2023-03-19T18:41:47;5.70;;;4.87;;
12846;SDS011;6492;48.128;8.320;2023-03-19T18:45:51;21.87;;;13.80;;
12846;SDS011;6492;48.128;8.320;2023-03-19T18:49:53;10.67;;;6.73;;
12846;SDS011;6492;48.128;8.320;2023-03-19T18:54:07;4.47;;;3.30;;
12846;SDS011;6492;48.128;8.320;2023-03-19T18:58:13;3.80;;;3.43;;
12846;SDS011;6492;48.128;8.320;2023-03-19T19:02:25;6.00;;;4.43;;
12846;SDS011;6492;48.128;8.320;2023-03-19T19:06:31;5.10;;;3.93;;
12846;SDS011;6492;48.128;8.320;2023-03-19T19:10:35;3.70;;;3.40;;
12846;SDS011;6492;48.128;8.320;2023-03-19T19:14:39;4.37;;;3.80;;
12846;SDS011;6492;48.128;8.320;2023-03-19T19:18:42;5.43;;;3.10;;
12846;SDS011;6492;48.128;8.320;2023-03-19T19:22:43;2.87;;;2.67;;
12846;SDS011;6492;48.128;8.320;2023-03-19T19:26:49;3.00;;;2.70;;
12846;SDS011;6492;48.128;8.320;2023-03-19T19:30:53;3.90;;;3.07;;
12846;SDS011;6492;48.128;8.320;2023-03-19T19:35:00;3.23;;;2.93;;
12846;SDS011;6492;48.128;8.320;2023-03-19T19:39:05;5.07;;;4.03;;
12846;SDS011;6492;48.128;8.320;2023-03-19T19:43:13;4.17;;;3.50;;
12846;SDS011;6492;48.128;8.320;2023-03-19T19:47:17;2.33;;;2.13;;
12846;SDS011;6492;48.128;8.320;2023-03-19T19:51:19;2.93;;;2.63;;
12846;SDS011;6492;48.128;8.320;2023-03-19T19:55:23;2.60;;;2.00;;
12846;SDS011;6492;48.128;8.320;2023-03-19T19:59:27;2.17;;;1.90;;
12846;SDS011;6492;48.128;8.320;2023-03-19T20:03:29;2.97;;;2.00;;
12846;SDS011;6492;48.128;8.320;2023-03-19T20:07:33;1.60;;;1.50;;
12846;SDS011;6492;48.128;8.320;2023-03-19T20:11:35;2.03;;;1.50;;
12846;SDS011;6492;48.128;8.320;2023-03-19T20:15:39;1.27;;;1.17;;
12846;SDS011;6492;48.128;8.320;2023-03-19T20:19:45;1.33;;;1.20;;
12846;SDS011;6492;48.128;8.320;2023-03-19T20:23:47;1.13;;;1.03;;
12846;SDS011;6492;48.128;8.320;2023-03-19T20:27:52;0.50;;;0.47;;
12846;SDS011;6492;48.128;8.320;2023-03-19T20:31:58;0.60;;;0.60;;
12846;SDS011;6492;48.128;8.320;2023-03-19T20:36:01;1.00;;;0.50;;
12846;SDS011;6492;48.128;8.320;2023-03-19T20:40:03;0.67;;;0.67;;
12846;SDS011;6492;48.128;8.320;2023-03-19T20:44:06;2.40;;;0.40;;
12846;SDS011;6492;48.128;8.320;2023-03-19T20:48:11;0.20;;;0.20;;
12846;SDS011;6492;48.128;8.320;2023-03-19T20:52:15;0.30;;;0.30;;
12846;SDS011;6492;48.128;8.320;2023-03-19T20:56:17;1.07;;;0.87;;
12846;SDS011;6492;48.128;8.320;2023-03-19T21:00:24;0.50;;;0.50;;
12846;SDS011;6492;48.128;8.320;2023-03-19T21:04:28;0.70;;;0.63;;
12846;SDS011;6492;48.128;8.320;2023-03-19T21:08:32;0.50;;;0.50;;
12846;SDS011;6492;48.128;8.320;2023-03-19T21:12:36;0.50;;;0.50;;
12846;SDS011;6492;48.128;8.320;2023-03-19T21:16:38;0.40;;;0.40;;
12846;SDS011;6492;48.128;8.320;2023-03-19T21:20:41;0.30;;;0.30;;
12846;SDS011;6492;48.128;8.320;2023-03-19T21:24:45;0.30;;;0.30;;
12846;SDS011;6492;48.128;8.320;2023-03-19T21:29:00;0.50;;;0.30;;
12846;SDS011;6492;48.128;8.320;2023-03-19T21:33:07;0.80;;;0.50;;
12846;SDS011;6492;48.128;8.320;2023-03-19T21:37:20;0.50;;;0.50;;
12846;SDS011;6492;48.128;8.320;2023-03-19T21:41:26;0.60;;;0.60;;
12846;SDS011;6492;48.128;8.320;2023-03-19T21:45:32;3.33;;;0.70;;
12846;SDS011;6492;48.128;8.320;2023-03-19T21:49:35;0.50;;;0.50;;
12846;SDS011;6492;48.128;8.320;2023-03-19T21:53:38;0.40;;;0.40;;
12846;SDS011;6492;48.128;8.320;2023-03-19T21:57:40;1.00;;;1.00;;
12846;SDS011;6492;48.128;8.320;2023-03-19T22:01:42;2.83;;;2.00;;
12846;SDS011;6492;48.128;8.320;2023-03-19T22:05:44;1.00;;;1.00;;
12846;SDS011;6492;48.128;8.320;2023-03-19T22:09:50;1.80;;;1.03;;
12846;SDS011;6492;48.128;8.320;2023-03-19T22:13:51;0.40;;;0.40;;
12846;SDS011;6492;48.128;8.320;2023-03-19T22:17:54;0.60;;;0.60;;
12846;SDS011;6492;48.128;8.320;2023-03-19T22:21:57;0.50;;;0.50;;
12846;SDS011;6492;48.128;8.320;2023-03-19T22:26:00;0.57;;;0.57;;
12846;SDS011;6492;48.128;8.320;2023-03-19T22:30:02;0.50;;;0.50;;
12846;SDS011;6492;48.128;8.320;2023-03-19T22:34:04;1.40;;;1.30;;
12846;SDS011;6492;48.128;8.320;2023-03-19T22:38:06;1.80;;;1.60;;
12846;SDS011;6492;48.128;8.320;2023-03-19T22:42:09;0.70;;;0.70;;
12846;SDS011;6492;48.128;8.320;2023-03-19T22:46:13;0.80;;;0.80;;
12846;SDS011;6492;48.128;8.320;2023-03-19T22:50:26;1.23;;;1.10;;
12846;SDS011;6492;48.128;8.320;2023-03-19T22:54:29;1.60;;;1.50;;
12846;SDS011;6492;48.128;8.320;2023-03-19T22:58:32;0.93;;;0.83;;
12846;SDS011;6492;48.128;8.320;2023-03-19T23:02:34;0.70;;;0.70;;
12846;SDS011;6492;48.128;8.320;2023-03-19T23:06:36;0.60;;;0.57;;
12846;SDS011;6492;48.128;8.320;2023-03-19T23:10:38;0.50;;;0.50;;
12846;SDS011;6492;48.128;8.320;2023-03-19T23:14:41;0.80;;;0.80;;
12846;SDS011;6492;48.128;8.320;2023-03-19T23:18:43;0.83;;;0.83;;
12846;SDS011;6492;48.128;8.320;2023-03-19T23:22:44;0.83;;;0.83;;
12846;SDS011;6492;48.128;8.320;2023-03-19T23:26:47;0.83;;;0.83;;
12846;SDS011;6492;48.128;8.320;2023-03-19T23:30:53;0.80;;;0.80;;
12846;SDS011;6492;48.128;8.320;2023-03-19T23:34:55;0.70;;;0.70;;
12846;SDS011;6492;48.128;8.320;2023-03-19T23:38:57;0.90;;;0.90;;
12846;SDS011;6492;48.128;8.320;2023-03-19T23:42:59;2.50;;;1.03;;
12846;SDS011;6492;48.128;8.320;2023-03-19T23:47:02;1.60;;;1.50;;
12846;SDS011;6492;48.128;8.320;2023-03-19T23:51:05;1.60;;;1.50;;
12846;SDS011;6492;48.128;8.320;2023-03-19T23:55:09;1.50;;;1.40;;
12846;SDS011;6492;48.128;8.320;2023-03-19T23:59:12;1.80;;;1.70;;
